KCZL

Tom B David Field Airport

Calhoun, Georgia, USA
METAR KCZL 191515Z AUTO 22007KT 10SM CLR 26/21 A3003 RMK AO2
Observed Flight Rules
Aug-19 @ 15:15 UTC (24 minutes ago) Visual Flight Rules
Wind Visibility Clouds
220° at 7 knots 10 miles
  • Clear skies
Temperatures Readings
Current 26°C / 79°F
Dewpoint 21°C / 70°F
Humidity 74%
Altimeter 30.03" Hg
Pressure 1017 hPa
Elevation 195
METAR KCZL 191515Z AUTO 22007KT 10SM CLR 26/21 A3003 RMK AO2
Observed Flight Rules
Aug-19 @ 15:15 UTC
(24 minutes ago)
VFR
Wind Visibility
220° at 7 knots 10 miles
Clouds
  • Clear skies
Temperature Dewpoint
26°C / 79°F 21°C / 70°F
Humidity Altimeter Pressure
74% 30.03" Hg 1017 hPa